Washington, DC (20570)

11:53 PM EST on November 26, 2014 (GMT -0500)
Logan Circle | Change Station
CLOSE
Current Station
Personal Weather Station
Location: Washington, DC
Elevation: 108 ft
Nearby Weather Stations

Elev 108 ft 38.91 °N, 77.03 °W | Updated 1 second ago

Overcast
Overcast
35.5 °F
Feels Like 36 °F
N
0.0
Wind Variable Wind from North
Gusts 0.0 mph

Today
High -- | Low -- °F
--% Chance of Precip.
Yesterday
High -- | Low -- °F
Precip. -- in
7:02 AM 4:48 PM
Waxing Crescent, 26% visible
Pressure 30.02 in
Visibility 10.0 miles
Clouds Few 2500 ft
Scattered Clouds 8500 ft
Mostly Cloudy 11000 ft
Windchill 36 °F
Dew Point 31 °F
Humidity 85%
Rainfall 1.17 in
Snow Depth Not available.
UV 0 out of 12
Pollen .10 out of 12
Air Quality Not available.
Flu Activity Not available.
METAR KDCA 270352Z 29006KT 10SM FEW025 SCT085 BKN110 04/01 A3002 RMK AO2 SLP166 T00440006

More Conditions Fewer Conditions

Pressure 30.02 in
Visibility 10.0 miles
Clouds Few 2500 ft
Scattered Clouds 8500 ft
Mostly Cloudy 11000 ft
Windchill 36 °F
Dew Point 31 °F
Humidity 85%
Rainfall 1.17 in
Snow Depth Not available.
UV 0 out of 12
Pollen .10 out of 12
Air Quality Not available.
Flu Activity Not available.
METAR KDCA 270352Z 29006KT 10SM FEW025 SCT085 BKN110 04/01 A3002 RMK AO2 SLP166 T00440006

More Conditions Fewer Conditions

10-Day Weather Forecast

Almanac

Astronomy

Nov. 26, 2014 Rise Set
Actual Time
Civil Twilight
Nautical Twilight
Astronomical Twilight
Moon
Length of Visible Light
Length of Day
Tomorrow will be .
, % of the Moon is Illuminated

Today's Extremes

State Highs State Lows

Community

WunderPhotos

Upload Photos

1,773,959 photos uploaded!

WunderBlogs® & News

Nearby

Air Quality

  Air Quality AQ Index Pollutant
Not available.

Snow Depth

Station Depth Elevation

Earthquake Activity

City Distance Mag. Time & Date
Minimum magnitude displayed is 2.5.

Coastal Water Temperatures

Place Temperature

Nearby Weather Stations